Time;durP1;ratioP1;P1;durP2;ratioP2;P2;SDS_P1;SDS_P2;PMS_P1;PMS_P2;Temp;Humidity;BMP_temperature;BMP_pressure;BME280_temperature;BME280_humidity;BME280_pressure;Samples;Min_cycle;Max_cycle;Signal;HPM_P1;HPM_P2
2022/06/14 00:00:54;;;;;;;2.90;1.30;;;;;;;;;;515045;28;665;-82
2022/06/14 00:01:09;;;;;;;2.72;1.40;;;;;;;;;;515331;28;1431;-83
2022/06/14 00:01:25;;;;;;;3.10;1.30;;;;;;;;;;515029;28;1209;-83
2022/06/14 00:01:40;;;;;;;3.47;1.30;;;;;;;;;;515508;28;1162;-83
2022/06/14 00:01:56;;;;;;;3.90;1.30;;;;;;;;;;515512;28;934;-83
2022/06/14 00:02:11;;;;;;;3.35;1.20;;;;;;;;;;515450;28;1017;-83
2022/06/14 00:02:26;;;;;;;3.30;1.40;;;;;;;;;;515606;28;1448;-83
2022/06/14 00:02:42;;;;;;;4.13;1.40;;;;;;;;;;515660;28;811;-82
2022/06/14 00:02:58;;;;;;;3.42;1.40;;;;;;;;;;513759;28;1177;-82
2022/06/14 00:03:13;;;;;;;3.60;1.33;;;;;;;;;;514116;28;1222;-84
2022/06/14 00:03:47;;;;;;;3.90;1.30;;;;;;;;;;514156;28;1201;-83
2022/06/14 00:04:03;;;;;;;3.63;1.60;;;;;;;;;;515802;28;948;-83
2022/06/14 00:04:18;;;;;;;3.88;1.50;;;;;;;;;;515720;28;1252;-83
2022/06/14 00:04:34;;;;;;;3.23;1.37;;;;;;;;;;515830;28;1244;-83
2022/06/14 00:04:50;;;;;;;3.08;1.40;;;;;;;;;;516711;28;1336;-83
2022/06/14 00:05:05;;;;;;;3.30;1.30;;;;;;;;;;517966;28;1236;-83
2022/06/14 00:05:21;;;;;;;4.60;1.30;;;;;;;;;;516105;28;1326;-83
2022/06/14 00:05:36;;;;;;;4.80;1.27;;;;;;;;;;515420;28;1333;-83
2022/06/14 00:05:53;;;;;;;3.73;1.33;;;;;;;;;;513148;28;1468;-82
2022/06/14 00:06:09;;;;;;;3.05;1.40;;;;;;;;;;513241;28;1239;-83
2022/06/14 00:06:28;;;;;;;4.43;1.55;;;;;;;;;;513402;28;1397;-83
2022/06/14 00:06:44;;;;;;;5.90;1.70;;;;;;;;;;511373;29;1244;-83
2022/06/14 00:06:59;;;;;;;4.57;1.48;;;;;;;;;;513620;28;1210;-83
2022/06/14 00:07:15;;;;;;;3.47;1.30;;;;;;;;;;513842;28;799;-83
2022/06/14 00:07:30;;;;;;;3.10;1.30;;;;;;;;;;513822;28;1445;-83
2022/06/14 00:07:46;;;;;;;2.80;1.40;;;;;;;;;;513958;28;886;-82
2022/06/14 00:08:01;;;;;;;3.47;1.40;;;;;;;;;;514994;28;905;-83
2022/06/14 00:08:18;;;;;;;4.50;1.40;;;;;;;;;;514900;28;1185;-83
2022/06/14 00:08:34;;;;;;;4.03;1.30;;;;;;;;;;516297;28;965;-83
2022/06/14 00:08:50;;;;;;;3.63;1.30;;;;;;;;;;516742;28;826;-82
2022/06/14 00:09:05;;;;;;;3.78;1.40;;;;;;;;;;516177;28;1368;-83
2022/06/14 00:09:21;;;;;;;3.70;1.40;;;;;;;;;;516755;28;1200;-83
2022/06/14 00:09:36;;;;;;;2.75;1.30;;;;;;;;;;515987;28;1291;-83
2022/06/14 00:09:51;;;;;;;3.13;1.30;;;;;;;;;;516010;28;988;-83
2022/06/14 00:10:07;;;;;;;3.72;1.40;;;;;;;;;;514776;28;1313;-84
2022/06/14 00:10:23;;;;;;;3.73;1.47;;;;;;;;;;515963;28;980;-83
2022/06/14 00:10:40;;;;;;;3.85;1.38;;;;;;;;;;516012;28;1346;-83
2022/06/14 00:10:58;;;;;;;3.95;1.40;;;;;;;;;;513900;28;1383;-83
2022/06/14 00:11:17;;;;;;;3.58;1.40;;;;;;;;;;514873;28;1218;-83
2022/06/14 00:11:36;;;;;;;3.17;1.40;;;;;;;;;;514045;28;1319;-83
2022/06/14 00:11:51;;;;;;;3.50;1.45;;;;;;;;;;513855;28;1247;-83
2022/06/14 00:12:07;;;;;;;4.00;1.43;;;;;;;;;;515931;28;1286;-83
2022/06/14 00:12:22;;;;;;;3.85;1.42;;;;;;;;;;516091;28;955;-83
2022/06/14 00:12:38;;;;;;;3.23;1.40;;;;;;;;;;515948;28;1221;-83
2022/06/14 00:12:53;;;;;;;4.38;1.40;;;;;;;;;;515902;28;1524;-83
2022/06/14 00:13:09;;;;;;;4.10;1.60;;;;;;;;;;516126;28;909;-83
2022/06/14 00:13:26;;;;;;;3.97;1.58;;;;;;;;;;514903;28;1248;-83
2022/06/14 00:13:42;;;;;;;3.90;1.30;;;;;;;;;;513943;28;1260;-83
2022/06/14 00:13:59;;;;;;;3.35;1.20;;;;;;;;;;514282;28;878;-83
2022/06/14 00:14:15;;;;;;;3.75;1.33;;;;;;;;;;514269;28;1036;-83
2022/06/14 00:14:30;;;;;;;3.97;1.30;;;;;;;;;;515114;28;1213;-83
2022/06/14 00:14:45;;;;;;;4.30;1.40;;;;;;;;;;516217;28;1243;-83
2022/06/14 00:15:01;;;;;;;4.53;1.50;;;;;;;;;;514263;28;1179;-83
2022/06/14 00:15:17;;;;;;;4.40;1.50;;;;;;;;;;514704;28;1288;-83
2022/06/14 00:15:33;;;;;;;3.63;1.40;;;;;;;;;;516249;28;932;-83
2022/06/14 00:15:49;;;;;;;3.95;1.33;;;;;;;;;;516064;28;1331;-83
2022/06/14 00:16:05;;;;;;;3.65;1.40;;;;;;;;;;516295;28;909;-83
2022/06/14 00:16:22;;;;;;;3.40;1.40;;;;;;;;;;514663;28;1232;-83
2022/06/14 00:16:38;;;;;;;3.00;1.30;;;;;;;;;;513293;28;1206;-83
2022/06/14 00:16:54;;;;;;;3.25;1.40;;;;;;;;;;511168;29;1241;-83
2022/06/14 00:17:09;;;;;;;3.72;1.50;;;;;;;;;;513112;28;1185;-83
2022/06/14 00:17:24;;;;;;;3.40;1.37;;;;;;;;;;514058;28;1165;-84
2022/06/14 00:17:40;;;;;;;3.75;1.45;;;;;;;;;;512184;29;1186;-84
2022/06/14 00:17:55;;;;;;;3.57;1.43;;;;;;;;;;514115;28;1780;-83
2022/06/14 00:18:12;;;;;;;3.10;1.40;;;;;;;;;;514281;28;1038;-83
2022/06/14 00:18:27;;;;;;;3.15;1.40;;;;;;;;;;516084;28;1969;-83
2022/06/14 00:18:43;;;;;;;3.35;1.52;;;;;;;;;;516345;28;901;-83
2022/06/14 00:19:01;;;;;;;4.07;1.47;;;;;;;;;;514360;28;1347;-83
2022/06/14 00:19:16;;;;;;;4.22;1.40;;;;;;;;;;516680;28;1405;-83
2022/06/14 00:19:32;;;;;;;3.72;1.30;;;;;;;;;;515992;28;1315;-83
2022/06/14 00:19:47;;;;;;;4.03;1.40;;;;;;;;;;513938;28;1412;-83
2022/06/14 00:20:03;;;;;;;3.70;1.47;;;;;;;;;;511905;29;1616;-83
2022/06/14 00:20:19;;;;;;;3.20;1.30;;;;;;;;;;511884;29;1257;-83
2022/06/14 00:20:34;;;;;;;2.80;1.20;;;;;;;;;;514014;28;1143;-83
2022/06/14 00:20:50;;;;;;;2.57;1.40;;;;;;;;;;513995;28;1259;-83
2022/06/14 00:21:06;;;;;;;2.92;1.45;;;;;;;;;;514158;28;862;-83
2022/06/14 00:21:22;;;;;;;3.87;1.40;;;;;;;;;;516288;28;1289;-84
2022/06/14 00:21:37;;;;;;;4.03;1.40;;;;;;;;;;518241;28;1273;-84
2022/06/14 00:21:53;;;;;;;3.03;1.38;;;;;;;;;;516166;28;1308;-84
2022/06/14 00:22:08;;;;;;;2.73;1.27;;;;;;;;;;516224;28;1154;-83
2022/06/14 00:22:24;;;;;;;4.35;1.45;;;;;;;;;;514290;28;1256;-83
2022/06/14 00:22:40;;;;;;;4.20;1.60;;;;;;;;;;514161;28;1615;-83
2022/06/14 00:22:55;;;;;;;3.25;1.45;;;;;;;;;;512194;29;1232;-83
2022/06/14 00:23:11;;;;;;;3.33;1.40;;;;;;;;;;514062;28;1217;-83
2022/06/14 00:23:27;;;;;;;3.67;1.40;;;;;;;;;;515903;28;1252;-83
2022/06/14 00:23:43;;;;;;;4.15;1.40;;;;;;;;;;516117;28;905;-83
2022/06/14 00:24:01;;;;;;;3.63;1.50;;;;;;;;;;516012;28;1802;-84
2022/06/14 00:24:16;;;;;;;2.65;1.48;;;;;;;;;;517035;28;862;-83
2022/06/14 00:24:33;;;;;;;3.42;1.60;;;;;;;;;;516086;28;1470;-83
2022/06/14 00:24:48;;;;;;;3.60;1.60;;;;;;;;;;517012;28;1266;-83
2022/06/14 00:25:05;;;;;;;3.95;1.50;;;;;;;;;;516315;28;1348;-83
2022/06/14 00:25:30;;;;;;;3.80;1.50;;;;;;;;;;517314;28;1205;-83
2022/06/14 00:25:47;;;;;;;2.72;1.40;;;;;;;;;;518376;28;1004;-83
2022/06/14 00:26:03;;;;;;;3.53;1.40;;;;;;;;;;516003;28;1554;-83
2022/06/14 00:26:19;;;;;;;4.60;1.50;;;;;;;;;;516101;28;827;-83
2022/06/14 00:26:34;;;;;;;4.47;1.50;;;;;;;;;;516216;28;897;-83
2022/06/14 00:26:50;;;;;;;3.65;1.50;;;;;;;;;;516072;28;1229;-83
2022/06/14 00:27:05;;;;;;;3.93;1.50;;;;;;;;;;516093;28;1336;-84
2022/06/14 00:27:21;;;;;;;4.05;1.40;;;;;;;;;;514133;28;1252;-83
2022/06/14 00:27:36;;;;;;;3.93;1.40;;;;;;;;;;515148;28;1123;-83
2022/06/14 00:27:52;;;;;;;4.85;1.45;;;;;;;;;;514381;28;1205;-83
2022/06/14 00:28:10;;;;;;;4.53;1.50;;;;;;;;;;514246;28;987;-83
2022/06/14 00:28:28;;;;;;;3.00;1.50;;;;;;;;;;514470;28;1060;-83
2022/06/14 00:28:44;;;;;;;3.45;1.48;;;;;;;;;;514435;28;965;-84
2022/06/14 00:29:00;;;;;;;4.28;1.40;;;;;;;;;;515639;28;1029;-83
2022/06/14 00:29:16;;;;;;;4.27;1.40;;;;;;;;;;515501;28;1292;-84
2022/06/14 00:29:32;;;;;;;4.18;1.50;;;;;;;;;;515591;28;1387;-84
2022/06/14 00:29:47;;;;;;;4.10;1.60;;;;;;;;;;516366;28;1350;-84
2022/06/14 00:30:04;;;;;;;3.47;1.50;;;;;;;;;;514225;28;1402;-83
2022/06/14 00:30:21;;;;;;;3.50;1.40;;;;;;;;;;514210;28;1356;-83
2022/06/14 00:30:39;;;;;;;3.20;1.40;;;;;;;;;;514413;28;1226;-83
2022/06/14 00:31:02;;;;;;;4.47;1.52;;;;;;;;;;514319;28;1244;-83
2022/06/14 00:31:21;;;;;;;4.47;1.50;;;;;;;;;;516268;28;1221;-83
2022/06/14 00:31:36;;;;;;;4.20;1.40;;;;;;;;;;516222;28;1313;-83
2022/06/14 00:31:51;;;;;;;4.20;1.50;;;;;;;;;;516035;28;889;-83
2022/06/14 00:32:07;;;;;;;4.53;1.50;;;;;;;;;;514241;28;1165;-83
2022/06/14 00:32:23;;;;;;;3.85;1.40;;;;;;;;;;514203;28;1171;-83
2022/06/14 00:32:38;;;;;;;2.80;1.30;;;;;;;;;;516199;28;1144;-83
2022/06/14 00:32:53;;;;;;;2.83;1.30;;;;;;;;;;516176;28;1186;-83
2022/06/14 00:33:09;;;;;;;2.73;1.47;;;;;;;;;;518109;28;1260;-83
2022/06/14 00:33:25;;;;;;;2.15;1.48;;;;;;;;;;518576;28;1012;-83
2022/06/14 00:33:40;;;;;;;3.10;1.40;;;;;;;;;;518298;28;1307;-83
2022/06/14 00:33:56;;;;;;;3.50;1.63;;;;;;;;;;518469;28;893;-83
2022/06/14 00:34:12;;;;;;;3.38;1.48;;;;;;;;;;516177;28;1423;-83
2022/06/14 00:34:27;;;;;;;3.85;1.33;;;;;;;;;;514170;28;1223;-83
2022/06/14 00:34:43;;;;;;;3.70;1.50;;;;;;;;;;514960;28;1055;-83
2022/06/14 00:34:58;;;;;;;3.07;1.40;;;;;;;;;;516596;28;1020;-83
2022/06/14 00:35:14;;;;;;;4.38;1.52;;;;;;;;;;514323;28;1172;-83
2022/06/14 00:35:29;;;;;;;4.93;1.58;;;;;;;;;;514713;28;834;-83
2022/06/14 00:35:46;;;;;;;4.17;1.53;;;;;;;;;;516249;28;1158;-83
2022/06/14 00:36:05;;;;;;;3.43;1.53;;;;;;;;;;516377;28;1312;-83
2022/06/14 00:36:28;;;;;;;3.53;1.63;;;;;;;;;;515188;28;1268;-83
2022/06/14 00:36:52;;;;;;;3.30;1.60;;;;;;;;;;516427;28;883;-83
2022/06/14 00:37:16;;;;;;;4.35;1.38;;;;;;;;;;515386;28;1306;-83
2022/06/14 00:37:31;;;;;;;3.17;1.40;;;;;;;;;;516250;28;882;-83
2022/06/14 00:37:47;;;;;;;2.27;1.30;;;;;;;;;;518496;28;997;-83
2022/06/14 00:38:03;;;;;;;3.13;1.40;;;;;;;;;;516413;28;1195;-83
2022/06/14 00:38:19;;;;;;;3.28;1.30;;;;;;;;;;518079;28;893;-83
2022/06/14 00:38:36;;;;;;;3.65;1.30;;;;;;;;;;516156;28;1967;-83
2022/06/14 00:38:52;;;;;;;3.97;1.40;;;;;;;;;;516444;28;985;-83
2022/06/14 00:39:08;;;;;;;3.00;1.50;;;;;;;;;;518082;28;1979;-83
2022/06/14 00:39:23;;;;;;;3.17;1.50;;;;;;;;;;518410;28;925;-83
2022/06/14 00:39:39;;;;;;;3.87;1.53;;;;;;;;;;518420;28;803;-83
2022/06/14 00:39:54;;;;;;;3.67;1.50;;;;;;;;;;517096;28;1322;-83
2022/06/14 00:40:14;;;;;;;3.60;1.40;;;;;;;;;;516355;28;1173;-83
2022/06/14 00:40:33;;;;;;;4.32;1.48;;;;;;;;;;517554;28;1323;-83
2022/06/14 00:40:52;;;;;;;4.18;1.40;;;;;;;;;;516379;28;1337;-83
2022/06/14 00:41:26;;;;;;;4.43;1.60;;;;;;;;;;514226;28;1419;-83
2022/06/14 00:41:44;;;;;;;4.15;1.48;;;;;;;;;;514320;28;910;-83
2022/06/14 00:42:00;;;;;;;3.45;1.58;;;;;;;;;;514756;28;1409;-83
2022/06/14 00:42:19;;;;;;;3.50;1.50;;;;;;;;;;514358;28;1191;-83
2022/06/14 00:42:34;;;;;;;3.05;1.40;;;;;;;;;;514389;28;902;-83
2022/06/14 00:42:50;;;;;;;3.00;1.33;;;;;;;;;;514199;28;1193;-83
2022/06/14 00:43:17;;;;;;;4.00;1.42;;;;;;;;;;512310;29;1332;-82
2022/06/14 00:43:32;;;;;;;3.47;1.55;;;;;;;;;;512710;28;1163;-83
2022/06/14 00:43:48;;;;;;;4.60;1.30;;;;;;;;;;512297;28;1580;-83
2022/06/14 00:44:06;;;;;;;4.60;1.30;;;;;;;;;;514126;28;1323;-83
2022/06/14 00:44:27;;;;;;;2.28;1.20;;;;;;;;;;514291;28;957;-83
2022/06/14 00:44:59;;;;;;;2.13;1.30;;;;;;;;;;514038;28;1447;-83
2022/06/14 00:45:17;;;;;;;4.05;1.33;;;;;;;;;;516171;28;1053;-83
2022/06/14 00:45:36;;;;;;;4.78;1.50;;;;;;;;;;516156;28;1357;-83
2022/06/14 00:45:52;;;;;;;3.50;1.38;;;;;;;;;;517883;28;1497;-83
2022/06/14 00:46:15;;;;;;;4.93;1.38;;;;;;;;;;516244;28;1264;-83
2022/06/14 00:46:45;;;;;;;3.67;1.48;;;;;;;;;;516727;28;936;-83
2022/06/14 00:47:06;;;;;;;2.90;1.40;;;;;;;;;;516179;28;1208;-83
2022/06/14 00:47:21;;;;;;;3.92;1.50;;;;;;;;;;514668;28;1403;-83
2022/06/14 00:47:45;;;;;;;4.63;1.50;;;;;;;;;;516368;28;1288;-83
2022/06/14 00:48:05;;;;;;;4.28;1.42;;;;;;;;;;518335;28;1486;-83
2022/06/14 00:48:28;;;;;;;4.00;1.50;;;;;;;;;;516114;28;1538;-83
2022/06/14 00:48:48;;;;;;;3.65;1.70;;;;;;;;;;516371;28;1323;-83
2022/06/14 00:49:12;;;;;;;4.55;1.50;;;;;;;;;;514243;28;1290;-83
2022/06/14 00:49:48;;;;;;;5.78;1.60;;;;;;;;;;515008;28;1352;-84
2022/06/14 00:50:07;;;;;;;3.95;1.40;;;;;;;;;;518322;28;889;-83
2022/06/14 00:50:29;;;;;;;5.72;1.40;;;;;;;;;;520273;28;1309;-83
2022/06/14 00:51:01;;;;;;;4.90;1.42;;;;;;;;;;520531;28;889;-83
2022/06/14 00:51:21;;;;;;;3.47;1.40;;;;;;;;;;520538;28;1362;-83
2022/06/14 00:51:47;;;;;;;2.75;1.30;;;;;;;;;;520363;28;1312;-83
2022/06/14 00:52:10;;;;;;;3.45;1.48;;;;;;;;;;520437;28;1028;-83
2022/06/14 00:52:35;;;;;;;3.65;1.50;;;;;;;;;;518294;28;1381;-83
2022/06/14 00:52:58;;;;;;;4.43;1.40;;;;;;;;;;518210;28;1593;-83
2022/06/14 00:53:28;;;;;;;3.33;1.30;;;;;;;;;;517724;28;1262;-83
2022/06/14 00:54:01;;;;;;;3.60;1.45;;;;;;;;;;520265;28;1204;-83
2022/06/14 00:54:25;;;;;;;3.25;1.42;;;;;;;;;;518707;28;1271;-83
2022/06/14 00:54:44;;;;;;;3.40;1.52;;;;;;;;;;518035;28;889;-83
2022/06/14 00:55:31;;;;;;;3.65;1.50;;;;;;;;;;517446;28;1534;-83
2022/06/14 00:55:52;;;;;;;3.70;1.50;;;;;;;;;;516055;28;1180;-83
2022/06/14 00:56:13;;;;;;;2.83;1.48;;;;;;;;;;514361;28;1314;-83
2022/06/14 00:56:37;;;;;;;3.80;1.58;;;;;;;;;;513899;28;1252;-83
2022/06/14 00:56:58;;;;;;;3.05;1.50;;;;;;;;;;516092;28;874;-82
2022/06/14 00:57:23;;;;;;;3.25;1.50;;;;;;;;;;516438;28;885;-83
2022/06/14 00:57:46;;;;;;;3.58;1.40;;;;;;;;;;518620;28;1470;-83
2022/06/14 00:58:04;;;;;;;3.65;1.38;;;;;;;;;;520428;28;1012;-83
2022/06/14 00:58:24;;;;;;;3.75;1.40;;;;;;;;;;518412;28;1331;-83
2022/06/14 00:59:09;;;;;;;4.00;1.50;;;;;;;;;;518227;28;1940;-83
2022/06/14 00:59:47;;;;;;;3.28;1.50;;;;;;;;;;514125;28;1137;-83
2022/06/14 01:00:07;;;;;;;3.50;1.40;;;;;;;;;;520161;28;878;-83
2022/06/14 01:00:28;;;;;;;4.22;1.52;;;;;;;;;;519971;28;1271;-83
2022/06/14 01:00:51;;;;;;;3.53;1.42;;;;;;;;;;520135;28;1099;-83
2022/06/14 01:01:13;;;;;;;3.80;1.40;;;;;;;;;;520322;28;984;-83
2022/06/14 01:01:36;;;;;;;4.90;1.50;;;;;;;;;;520292;28;1377;-83
2022/06/14 01:01:56;;;;;;;3.63;1.30;;;;;;;;;;517876;28;1210;-83
2022/06/14 01:02:21;;;;;;;4.45;1.20;;;;;;;;;;516181;28;1355;-83
2022/06/14 01:02:48;;;;;;;4.65;1.40;;;;;;;;;;515259;28;1204;-83
2022/06/14 01:03:08;;;;;;;5.15;1.50;;;;;;;;;;516382;28;1120;-83
2022/06/14 01:03:30;;;;;;;3.58;1.45;;;;;;;;;;516297;28;1421;-83
2022/06/14 01:03:54;;;;;;;3.53;1.52;;;;;;;;;;515364;28;1232;-83
2022/06/14 01:04:25;;;;;;;3.58;1.60;;;;;;;;;;516488;28;952;-83
2022/06/14 01:04:42;;;;;;;4.25;1.35;;;;;;;;;;518291;28;846;-83
2022/06/14 01:05:03;;;;;;;4.32;1.33;;;;;;;;;;518104;28;1375;-83
2022/06/14 01:05:29;;;;;;;4.55;1.40;;;;;;;;;;519332;28;1208;-83
2022/06/14 01:06:06;;;;;;;4.90;1.48;;;;;;;;;;519717;28;1048;-83
2022/06/14 01:06:32;;;;;;;4.28;1.50;;;;;;;;;;520047;28;984;-83
2022/06/14 01:06:52;;;;;;;3.08;1.40;;;;;;;;;;520183;28;964;-83
2022/06/14 01:07:26;;;;;;;3.83;1.38;;;;;;;;;;520458;28;920;-83
2022/06/14 01:07:47;;;;;;;3.78;1.50;;;;;;;;;;521264;28;1765;-83
2022/06/14 01:08:03;;;;;;;3.20;1.30;;;;;;;;;;522424;28;1048;-83
2022/06/14 01:08:18;;;;;;;3.73;1.40;;;;;;;;;;522471;28;944;-83
2022/06/14 01:08:39;;;;;;;3.65;1.48;;;;;;;;;;520298;28;1305;-83
2022/06/14 01:08:58;;;;;;;3.78;1.60;;;;;;;;;;518324;28;1260;-83
2022/06/14 01:09:26;;;;;;;4.18;1.45;;;;;;;;;;518283;28;1284;-84
2022/06/14 01:09:54;;;;;;;3.17;1.40;;;;;;;;;;518098;28;914;-83
2022/06/14 01:10:15;;;;;;;3.53;1.35;;;;;;;;;;518323;28;850;-83
2022/06/14 01:10:33;;;;;;;4.07;1.40;;;;;;;;;;517595;28;1392;-83
2022/06/14 01:10:48;;;;;;;3.55;1.50;;;;;;;;;;518141;28;1347;-83
2022/06/14 01:11:07;;;;;;;3.77;1.43;;;;;;;;;;518763;28;1372;-83
2022/06/14 01:11:51;;;;;;;3.42;1.30;;;;;;;;;;517995;28;1317;-83
2022/06/14 01:12:14;;;;;;;3.53;1.42;;;;;;;;;;517445;28;1202;-83
2022/06/14 01:12:34;;;;;;;4.90;1.58;;;;;;;;;;517695;28;1271;-83
2022/06/14 01:12:54;;;;;;;5.05;1.50;;;;;;;;;;518215;28;842;-83
2022/06/14 01:13:10;;;;;;;3.00;1.40;;;;;;;;;;518003;28;1268;-84
2022/06/14 01:13:25;;;;;;;3.50;1.48;;;;;;;;;;518236;28;1032;-83
2022/06/14 01:13:41;;;;;;;3.50;1.57;;;;;;;;;;516088;28;1172;-83
2022/06/14 01:13:59;;;;;;;3.88;1.58;;;;;;;;;;515917;28;1638;-83
2022/06/14 01:14:19;;;;;;;3.30;1.40;;;;;;;;;;514061;28;1237;-83
2022/06/14 01:14:44;;;;;;;4.75;1.38;;;;;;;;;;514044;28;1251;-83
2022/06/14 01:15:04;;;;;;;3.72;1.40;;;;;;;;;;514317;28;1400;-83
2022/06/14 01:15:23;;;;;;;4.05;1.30;;;;;;;;;;512080;28;1290;-83
2022/06/14 01:15:38;;;;;;;3.60;1.30;;;;;;;;;;513727;28;946;-83
2022/06/14 01:15:54;;;;;;;3.03;1.40;;;;;;;;;;516105;28;1831;-83
2022/06/14 01:16:11;;;;;;;3.25;1.42;;;;;;;;;;517375;28;1235;-83
2022/06/14 01:16:26;;;;;;;3.63;1.35;;;;;;;;;;516306;28;1235;-83
2022/06/14 01:16:41;;;;;;;4.53;1.50;;;;;;;;;;514075;28;1264;-83
2022/06/14 01:16:57;;;;;;;4.53;1.50;;;;;;;;;;514338;28;1067;-83
2022/06/14 01:17:14;;;;;;;3.55;1.40;;;;;;;;;;513035;28;1158;-83
2022/06/14 01:17:33;;;;;;;2.70;1.33;;;;;;;;;;514188;28;1702;-83
2022/06/14 01:17:58;;;;;;;3.08;1.40;;;;;;;;;;515615;28;886;-83
2022/06/14 01:18:15;;;;;;;3.80;1.48;;;;;;;;;;518346;28;1294;-83
2022/06/14 01:18:31;;;;;;;3.80;1.40;;;;;;;;;;518397;28;1981;-83
2022/06/14 01:18:46;;;;;;;4.22;1.33;;;;;;;;;;518048;28;1349;-83
2022/06/14 01:19:05;;;;;;;3.47;1.30;;;;;;;;;;518564;28;973;-83
2022/06/14 01:19:23;;;;;;;2.60;1.40;;;;;;;;;;518272;28;1215;-83
2022/06/14 01:19:40;;;;;;;2.88;1.50;;;;;;;;;;518287;28;1189;-83
2022/06/14 01:19:56;;;;;;;3.38;1.50;;;;;;;;;;516203;28;1346;-83
2022/06/14 01:20:16;;;;;;;3.85;1.60;;;;;;;;;;516384;28;1060;-84
2022/06/14 01:20:32;;;;;;;3.08;1.40;;;;;;;;;;518148;28;1244;-83
2022/06/14 01:20:47;;;;;;;3.10;1.40;;;;;;;;;;520355;28;957;-83
2022/06/14 01:21:03;;;;;;;3.97;1.60;;;;;;;;;;520474;28;822;-83
2022/06/14 01:21:18;;;;;;;4.50;1.60;;;;;;;;;;518042;28;1215;-83
2022/06/14 01:21:33;;;;;;;3.67;1.50;;;;;;;;;;519194;28;1133;-83
2022/06/14 01:22:12;;;;;;;3.50;1.40;;;;;;;;;;519240;28;1310;-83
2022/06/14 01:22:29;;;;;;;4.95;1.40;;;;;;;;;;513806;28;1401;-83
2022/06/14 01:22:47;;;;;;;3.60;1.50;;;;;;;;;;515364;28;1259;-83
2022/06/14 01:23:04;;;;;;;3.95;1.42;;;;;;;;;;516094;28;1037;-83
2022/06/14 01:23:20;;;;;;;4.03;1.35;;;;;;;;;;514187;28;1283;-83
2022/06/14 01:23:35;;;;;;;3.63;1.33;;;;;;;;;;516277;28;966;-83
2022/06/14 01:23:51;;;;;;;3.60;1.42;;;;;;;;;;516280;28;1316;-83
2022/06/14 01:24:07;;;;;;;3.20;1.50;;;;;;;;;;516141;28;885;-83
2022/06/14 01:24:22;;;;;;;3.40;1.70;;;;;;;;;;515182;28;1433;-83
2022/06/14 01:24:40;;;;;;;3.53;1.57;;;;;;;;;;517063;28;1192;-83
2022/06/14 01:24:56;;;;;;;2.85;1.33;;;;;;;;;;515961;28;1204;-83
2022/06/14 01:25:11;;;;;;;2.38;1.33;;;;;;;;;;513980;28;1216;-83
2022/06/14 01:25:33;;;;;;;2.33;1.40;;;;;;;;;;512008;28;1187;-83
2022/06/14 01:25:53;;;;;;;3.60;1.50;;;;;;;;;;511929;28;1346;-83
2022/06/14 01:26:18;;;;;;;3.30;1.40;;;;;;;;;;514019;28;1248;-83
2022/06/14 01:26:35;;;;;;;3.83;1.50;;;;;;;;;;515377;28;937;-83
2022/06/14 01:26:50;;;;;;;3.13;1.60;;;;;;;;;;515187;28;1873;-83
2022/06/14 01:27:09;;;;;;;3.15;1.50;;;;;;;;;;517188;28;1336;-83
2022/06/14 01:27:25;;;;;;;2.75;1.35;;;;;;;;;;519823;28;925;-83
2022/06/14 01:27:41;;;;;;;3.20;1.20;;;;;;;;;;519044;28;1271;-83
2022/06/14 01:28:00;;;;;;;3.72;1.20;;;;;;;;;;520375;28;865;-83
2022/06/14 01:28:18;;;;;;;3.63;1.45;;;;;;;;;;518251;28;1317;-84
2022/06/14 01:28:35;;;;;;;3.70;1.55;;;;;;;;;;516345;28;1369;-83
2022/06/14 01:28:55;;;;;;;3.28;1.48;;;;;;;;;;514274;28;1427;-83
2022/06/14 01:29:11;;;;;;;2.83;1.40;;;;;;;;;;514108;28;1400;-83
2022/06/14 01:29:28;;;;;;;2.90;1.33;;;;;;;;;;512358;29;1264;-83
2022/06/14 01:29:49;;;;;;;3.15;1.50;;;;;;;;;;514176;28;1326;-83
2022/06/14 01:30:24;;;;;;;4.30;1.60;;;;;;;;;;514709;28;934;-82
2022/06/14 01:30:45;;;;;;;3.13;1.30;;;;;;;;;;516655;28;965;-82
2022/06/14 01:31:02;;;;;;;2.78;1.40;;;;;;;;;;518332;28;953;-82
2022/06/14 01:31:19;;;;;;;2.67;1.40;;;;;;;;;;518775;28;1526;-82
2022/06/14 01:31:34;;;;;;;3.67;1.42;;;;;;;;;;518750;28;1226;-82
2022/06/14 01:31:54;;;;;;;4.07;1.50;;;;;;;;;;520175;28;1270;-82
2022/06/14 01:32:13;;;;;;;4.50;1.40;;;;;;;;;;520267;28;1325;-82
2022/06/14 01:32:31;;;;;;;4.63;1.40;;;;;;;;;;520343;28;913;-83
2022/06/14 01:32:53;;;;;;;4.38;1.40;;;;;;;;;;520321;28;1374;-83
2022/06/14 01:33:45;;;;;;;3.90;1.50;;;;;;;;;;520910;28;1248;-83
2022/06/14 01:34:06;;;;;;;4.30;1.50;;;;;;;;;;514125;28;1141;-83
2022/06/14 01:34:24;;;;;;;4.22;1.50;;;;;;;;;;514135;28;854;-82
2022/06/14 01:34:44;;;;;;;3.15;1.60;;;;;;;;;;514081;28;1355;-83
2022/06/14 01:35:04;;;;;;;3.85;1.52;;;;;;;;;;514248;28;1051;-83
2022/06/14 01:35:24;;;;;;;4.22;1.50;;;;;;;;;;520317;28;1217;-83
2022/06/14 01:35:44;;;;;;;4.00;1.42;;;;;;;;;;520241;28;1389;-82
2022/06/14 01:36:08;;;;;;;4.20;1.40;;;;;;;;;;518191;28;1403;-82
2022/06/14 01:36:28;;;;;;;3.13;1.35;;;;;;;;;;516160;28;878;-82
2022/06/14 01:36:44;;;;;;;2.63;1.30;;;;;;;;;;518191;28;1203;-82
2022/06/14 01:37:00;;;;;;;3.40;1.30;;;;;;;;;;518002;28;1193;-82
2022/06/14 01:37:15;;;;;;;7.23;1.50;;;;;;;;;;519616;28;1491;-84
2022/06/14 01:37:31;;;;;;;6.63;1.60;;;;;;;;;;520084;28;925;-83
2022/06/14 01:37:49;;;;;;;3.25;1.50;;;;;;;;;;518419;28;1206;-83
2022/06/14 01:38:09;;;;;;;2.85;1.50;;;;;;;;;;518277;28;1311;-83
2022/06/14 01:38:25;;;;;;;4.30;1.42;;;;;;;;;;516191;28;1385;-83
2022/06/14 01:38:43;;;;;;;4.57;1.40;;;;;;;;;;515368;28;1918;-83
2022/06/14 01:39:01;;;;;;;4.65;1.55;;;;;;;;;;514182;28;1222;-83
2022/06/14 01:39:18;;;;;;;4.03;1.50;;;;;;;;;;514234;28;1351;-83
2022/06/14 01:39:33;;;;;;;3.28;1.50;;;;;;;;;;516208;28;1467;-83
2022/06/14 01:39:49;;;;;;;2.93;1.30;;;;;;;;;;516123;28;1332;-83
2022/06/14 01:40:06;;;;;;;3.15;1.42;;;;;;;;;;514206;28;1447;-83
2022/06/14 01:40:30;;;;;;;3.92;1.55;;;;;;;;;;514184;28;1256;-83
2022/06/14 01:41:10;;;;;;;3.55;1.35;;;;;;;;;;514445;28;954;-83
2022/06/14 01:41:48;;;;;;;3.05;1.50;;;;;;;;;;514786;28;1237;-83
2022/06/14 01:42:11;;;;;;;3.58;1.60;;;;;;;;;;518069;28;885;-83
2022/06/14 01:42:49;;;;;;;2.65;1.45;;;;;;;;;;518003;28;1402;-83
2022/06/14 01:43:29;;;;;;;3.05;1.40;;;;;;;;;;518125;28;949;-83
2022/06/14 01:44:08;;;;;;;4.53;1.50;;;;;;;;;;517910;28;1301;-83
2022/06/14 01:45:02;;;;;;;3.85;1.40;;;;;;;;;;517314;28;1479;-83
2022/06/14 01:45:40;;;;;;;4.00;1.35;;;;;;;;;;512757;28;1424;-83
2022/06/14 01:46:16;;;;;;;2.80;1.50;;;;;;;;;;515434;28;1441;-83
2022/06/14 01:46:40;;;;;;;2.80;1.50;;;;;;;;;;517688;28;1061;-83
2022/06/14 01:47:14;;;;;;;2.90;1.42;;;;;;;;;;517909;28;867;-83
2022/06/14 01:47:32;;;;;;;4.10;1.60;;;;;;;;;;518174;28;1211;-83
2022/06/14 01:48:02;;;;;;;4.30;1.58;;;;;;;;;;516977;28;1181;-83
2022/06/14 01:48:29;;;;;;;3.33;1.52;;;;;;;;;;516059;28;1256;-83
2022/06/14 01:48:52;;;;;;;3.97;1.50;;;;;;;;;;516049;28;998;-83
2022/06/14 01:52:02;;;;;;;3.25;1.38;;;;;;;;;;516072;28;728;-83
2022/06/14 01:52:32;;;;;;;3.80;1.40;;;;;;;;;;518064;28;1296;-83
2022/06/14 01:52:57;;;;;;;3.03;1.40;;;;;;;;;;518101;28;1260;-83
2022/06/14 01:53:18;;;;;;;4.18;1.50;;;;;;;;;;518097;28;1362;-84
2022/06/14 01:54:00;;;;;;;5.28;1.52;;;;;;;;;;515972;28;1671;-83
2022/06/14 01:54:32;;;;;;;3.28;1.67;;;;;;;;;;514651;28;985;-83
2022/06/14 01:54:50;;;;;;;3.03;1.50;;;;;;;;;;516104;28;901;-83
2022/06/14 01:55:19;;;;;;;4.90;1.50;;;;;;;;;;516046;28;1434;-83
2022/06/14 01:55:53;;;;;;;3.75;1.50;;;;;;;;;;515892;28;1410;-83
2022/06/14 01:56:25;;;;;;;3.80;1.50;;;;;;;;;;516005;28;885;-83
2022/06/14 01:56:40;;;;;;;4.45;1.80;;;;;;;;;;522118;28;1246;-83
2022/06/14 01:57:17;;;;;;;5.20;1.67;;;;;;;;;;522838;28;885;-83
2022/06/14 01:57:57;;;;;;;3.22;1.40;;;;;;;;;;520528;28;957;-83
2022/06/14 01:58:35;;;;;;;3.95;1.70;;;;;;;;;;517889;28;889;-83
2022/06/14 01:58:59;;;;;;;4.82;1.65;;;;;;;;;;517360;28;1222;-83
2022/06/14 01:59:27;;;;;;;5.75;1.70;;;;;;;;;;516080;28;1387;-83
2022/06/14 01:59:47;;;;;;;3.90;1.65;;;;;;;;;;518061;28;857;-83
2022/06/14 02:00:09;;;;;;;4.15;1.63;;;;;;;;;;518674;28;1220;-83
2022/06/14 02:00:46;;;;;;;4.10;1.60;;;;;;;;;;518087;28;1384;-83
2022/06/14 02:01:17;;;;;;;4.50;1.50;;;;;;;;;;518106;28;1344;-83
2022/06/14 02:01:40;;;;;;;4.85;1.52;;;;;;;;;;515788;28;1233;-83
2022/06/14 02:02:05;;;;;;;3.75;1.60;;;;;;;;;;517080;28;854;-83
2022/06/14 02:02:28;;;;;;;3.47;1.52;;;;;;;;;;519427;28;830;-83
2022/06/14 02:04:40;;;;;;;3.45;1.60;;;;;;;;;;521152;28;1482;-83
2022/06/14 02:05:13;;;;;;;3.92;1.55;;;;;;;;;;520128;28;1412;-83
2022/06/14 02:05:34;;;;;;;4.05;1.40;;;;;;;;;;518745;28;1730;-83
2022/06/14 02:05:58;;;;;;;3.60;1.52;;;;;;;;;;517993;28;1488;-83
2022/06/14 02:06:18;;;;;;;3.90;1.50;;;;;;;;;;516046;28;1454;-83
2022/06/14 02:06:44;;;;;;;4.57;1.50;;;;;;;;;;516076;28;1483;-83
2022/06/14 02:07:19;;;;;;;4.85;1.60;;;;;;;;;;518038;28;972;-83
2022/06/14 02:07:45;;;;;;;3.63;1.60;;;;;;;;;;520011;28;877;-83
2022/06/14 02:08:16;;;;;;;3.55;1.60;;;;;;;;;;519714;28;1301;-83
2022/06/14 02:08:42;;;;;;;4.95;1.50;;;;;;;;;;519209;28;1224;-83
2022/06/14 02:09:11;;;;;;;3.47;1.50;;;;;;;;;;520085;28;1143;-83
2022/06/14 02:09:53;;;;;;;3.10;1.40;;;;;;;;;;517886;28;1295;-83
2022/06/14 02:10:18;;;;;;;3.67;1.60;;;;;;;;;;519836;28;1015;-83
2022/06/14 02:10:40;;;;;;;3.22;1.33;;;;;;;;;;519962;28;1263;-83
2022/06/14 02:11:10;;;;;;;3.10;1.40;;;;;;;;;;517665;28;861;-82
2022/06/14 02:11:29;;;;;;;3.47;1.45;;;;;;;;;;517380;28;1330;-83
2022/06/14 02:11:45;;;;;;;3.72;1.40;;;;;;;;;;517972;28;1264;-83